Time;durP1;ratioP1;P1;durP2;ratioP2;P2;SDS_P1;SDS_P2;PMS_P1;PMS_P2;Temp;Humidity;BMP_temperature;BMP_pressure;BME280_temperature;BME280_humidity;BME280_pressure;Samples;Min_cycle;Max_cycle;Signal;HPM_P1;HPM_P2
2023/07/25 00:02:44;;;;;;;;;;;16.80;99.90;;;;;;7325474;19;110654;-74
2023/07/25 00:05:12;;;;;;;;;;;16.80;99.90;;;;;;7339446;19;109082;-75
2023/07/25 00:07:39;;;;;;;;;;;16.80;99.90;;;;;;7336129;19;108844;-75
2023/07/25 00:10:07;;;;;;;;;;;16.80;99.90;;;;;;7341154;19;110145;-76
2023/07/25 00:12:34;;;;;;;;;;;16.80;99.90;;;;;;7332187;19;110876;-74
2023/07/25 00:15:02;;;;;;;;;;;16.90;99.90;;;;;;7340263;19;109727;-74
2023/07/25 00:17:29;;;;;;;;;;;16.90;99.90;;;;;;7338587;19;110155;-75
2023/07/25 00:19:56;;;;;;;;;;;16.90;99.90;;;;;;7336780;19;109729;-74
2023/07/25 00:22:23;;;;;;;;;;;16.90;99.90;;;;;;7339074;19;110464;-74
2023/07/25 00:24:50;;;;;;;;;;;16.90;99.90;;;;;;7338169;19;109045;-74
2023/07/25 00:27:17;;;;;;;;;;;16.90;99.90;;;;;;7339004;19;109118;-74
2023/07/25 00:29:46;;;;;;;;;;;16.90;99.90;;;;;;7334941;19;111963;-74
2023/07/25 00:32:13;;;;;;;;;;;16.90;99.90;;;;;;7332113;19;109484;-74
2023/07/25 00:34:40;;;;;;;;;;;16.90;99.90;;;;;;7338562;19;108944;-75
2023/07/25 00:37:08;;;;;;;;;;;16.90;99.90;;;;;;7338036;19;110586;-74
2023/07/25 00:39:36;;;;;;;;;;;16.90;99.90;;;;;;7343300;19;108892;-74
2023/07/25 00:42:03;;;;;;;;;;;16.90;99.90;;;;;;7335436;19;111512;-74
2023/07/25 00:44:30;;;;;;;;;;;16.90;99.90;;;;;;7337747;19;109138;-74
2023/07/25 00:46:57;;;;;;;;;;;16.90;99.90;;;;;;7337789;19;109097;-74
2023/07/25 00:49:24;;;;;;;;;;;16.90;99.90;;;;;;7333937;19;109160;-74
2023/07/25 00:51:51;;;;;;;;;;;16.90;99.90;;;;;;7336745;19;108444;-74
2023/07/25 00:54:19;;;;;;;;;;;16.90;99.90;;;;;;7337711;19;109442;-74
2023/07/25 00:56:46;;;;;;;;;;;16.70;99.90;;;;;;7337533;19;111217;-74
2023/07/25 00:59:13;;;;;;;;;;;16.80;99.90;;;;;;7332915;19;110333;-74
2023/07/25 01:01:41;;;;;;;;;;;16.80;99.90;;;;;;7339548;19;109478;-74
2023/07/25 01:04:08;;;;;;;;;;;16.80;99.90;;;;;;7333579;19;108673;-73
2023/07/25 01:06:38;;;;;;;;;;;16.80;99.90;;;;;;7335342;19;110244;-74
2023/07/25 01:09:05;;;;;;;;;;;16.80;99.90;;;;;;7336676;19;110493;-74
2023/07/25 01:11:32;;;;;;;;;;;16.80;99.90;;;;;;7334933;19;109354;-73
2023/07/25 01:13:59;;;;;;;;;;;16.70;99.90;;;;;;7338418;19;108759;-74
2023/07/25 01:16:27;;;;;;;;;;;16.60;99.90;;;;;;7337491;19;109676;-74
2023/07/25 01:18:56;;;;;;;;;;;16.70;99.90;;;;;;7336145;19;109848;-74
2023/07/25 01:21:23;;;;;;;;;;;16.60;99.90;;;;;;7338294;19;110291;-74
2023/07/25 01:23:51;;;;;;;;;;;16.60;99.90;;;;;;7339268;19;108882;-73
2023/07/25 01:26:18;;;;;;;;;;;16.60;99.90;;;;;;7329840;19;110600;-74
2023/07/25 01:28:51;;;;;;;;;;;16.60;99.90;;;;;;7337067;19;110002;-73
2023/07/25 01:31:18;;;;;;;;;;;16.70;99.90;;;;;;7334009;19;108627;-74
2023/07/25 01:33:45;;;;;;;;;;;16.70;99.90;;;;;;7334391;19;112350;-74
2023/07/25 01:36:12;;;;;;;;;;;16.60;99.90;;;;;;7333325;19;111316;-73
2023/07/25 01:38:39;;;;;;;;;;;16.60;99.90;;;;;;7334386;19;109475;-74
2023/07/25 01:41:06;;;;;;;;;;;16.60;99.90;;;;;;7335208;19;109634;-73
2023/07/25 01:43:34;;;;;;;;;;;16.70;99.90;;;;;;7343636;19;109547;-73
2023/07/25 01:46:01;;;;;;;;;;;16.70;99.90;;;;;;7332693;19;108186;-73
2023/07/25 01:48:40;;;;;;;;;;;16.70;99.90;;;;;;7373768;19;108451;-74
2023/07/25 01:51:10;;;;;;;;;;;16.60;99.90;;;;;;7366800;19;108660;-74
2023/07/25 01:53:38;;;;;;;;;;;16.60;99.90;;;;;;7373255;19;109614;-73
2023/07/25 01:56:05;;;;;;;;;;;16.60;99.90;;;;;;7369556;19;110114;-73
2023/07/25 01:58:32;;;;;;;;;;;16.70;99.90;;;;;;7369270;19;109108;-74
2023/07/25 02:00:59;;;;;;;;;;;16.60;99.90;;;;;;7369436;19;109905;-73
2023/07/25 02:03:27;;;;;;;;;;;16.50;99.90;;;;;;7369742;19;108955;-73
2023/07/25 02:05:54;;;;;;;;;;;16.40;99.90;;;;;;7365548;19;109179;-74
2023/07/25 02:08:21;;;;;;;;;;;16.50;99.90;;;;;;7373884;19;109279;-74
2023/07/25 02:10:48;;;;;;;;;;;16.50;99.90;;;;;;7372879;19;109100;-74
2023/07/25 02:13:15;;;;;;;;;;;16.50;99.90;;;;;;7367703;19;109782;-74
2023/07/25 02:15:43;;;;;;;;;;;16.50;99.90;;;;;;7367986;19;109794;-74
2023/07/25 02:18:10;;;;;;;;;;;16.60;99.90;;;;;;7364477;19;109685;-74
2023/07/25 02:20:38;;;;;;;;;;;16.50;99.90;;;;;;7370200;19;108636;-74
2023/07/25 02:23:05;;;;;;;;;;;16.40;99.90;;;;;;7364301;19;110101;-74
2023/07/25 02:25:32;;;;;;;;;;;16.40;99.90;;;;;;7367347;19;108436;-74
2023/07/25 02:27:59;;;;;;;;;;;16.40;99.90;;;;;;7365292;19;109192;-73
2023/07/25 02:30:26;;;;;;;;;;;16.40;99.90;;;;;;7372562;19;110381;-73
2023/07/25 02:32:53;;;;;;;;;;;16.40;99.90;;;;;;7364587;19;109533;-73
2023/07/25 02:35:21;;;;;;;;;;;16.40;99.90;;;;;;7366193;19;109750;-73
2023/07/25 02:37:48;;;;;;;;;;;16.40;99.90;;;;;;7368191;19;109631;-73
2023/07/25 02:40:15;;;;;;;;;;;16.40;99.90;;;;;;7368006;19;109355;-73
2023/07/25 02:42:42;;;;;;;;;;;16.40;99.90;;;;;;7367156;19;111911;-72
2023/07/25 02:45:09;;;;;;;;;;;16.40;99.90;;;;;;7368811;19;109842;-73
2023/07/25 02:47:37;;;;;;;;;;;16.40;99.90;;;;;;7367396;19;108498;-73
2023/07/25 02:50:04;;;;;;;;;;;16.30;99.90;;;;;;7366171;19;109231;-74
2023/07/25 02:52:31;;;;;;;;;;;16.10;99.90;;;;;;7372328;19;108594;-73
2023/07/25 02:54:58;;;;;;;;;;;16.10;99.90;;;;;;7369844;19;110682;-73
2023/07/25 02:57:25;;;;;;;;;;;16.20;99.90;;;;;;7365780;19;109415;-73
2023/07/25 02:59:52;;;;;;;;;;;16.20;99.90;;;;;;7337714;19;110714;-65
2023/07/25 03:02:20;;;;;;;;;;;16.20;99.90;;;;;;7335417;19;111012;-64
2023/07/25 03:04:47;;;;;;;;;;;16.20;99.90;;;;;;7337683;19;109031;-64
2023/07/25 03:07:14;;;;;;;;;;;16.20;99.90;;;;;;7333668;19;108804;-64
2023/07/25 03:09:41;;;;;;;;;;;16.10;99.90;;;;;;7337164;19;109178;-64
2023/07/25 03:12:09;;;;;;;;;;;16.10;99.90;;;;;;7339684;19;109754;-64
2023/07/25 03:14:36;;;;;;;;;;;16.10;99.90;;;;;;7342108;19;109198;-64
2023/07/25 03:17:03;;;;;;;;;;;16.10;99.90;;;;;;7336706;19;109108;-64
2023/07/25 03:19:30;;;;;;;;;;;16.10;99.90;;;;;;7340085;19;109154;-64
2023/07/25 03:21:57;;;;;;;;;;;16.10;99.90;;;;;;7335838;19;109138;-64
2023/07/25 03:24:24;;;;;;;;;;;16.10;99.90;;;;;;7335917;19;109150;-64
2023/07/25 03:26:52;;;;;;;;;;;16.10;99.90;;;;;;7337919;19;108381;-67
2023/07/25 03:29:19;;;;;;;;;;;16.10;99.90;;;;;;7335344;19;109149;-64
2023/07/25 03:31:46;;;;;;;;;;;16.10;99.90;;;;;;7335281;19;108679;-65
2023/07/25 03:34:13;;;;;;;;;;;16.10;99.90;;;;;;7336744;19;109770;-64
2023/07/25 03:36:41;;;;;;;;;;;16.10;99.90;;;;;;7336627;19;109129;-64
2023/07/25 03:39:08;;;;;;;;;;;16.10;99.90;;;;;;7340111;19;108603;-65
2023/07/25 03:41:35;;;;;;;;;;;16.10;99.90;;;;;;7331827;19;109782;-65
2023/07/25 03:44:02;;;;;;;;;;;16.00;99.90;;;;;;7340870;19;108923;-64
2023/07/25 03:46:29;;;;;;;;;;;16.00;99.90;;;;;;7332855;19;109633;-65
2023/07/25 03:48:58;;;;;;;;;;;15.90;99.90;;;;;;7335691;19;109278;-62
2023/07/25 03:51:25;;;;;;;;;;;15.90;99.90;;;;;;7335361;19;108599;-65
2023/07/25 03:53:52;;;;;;;;;;;15.90;99.90;;;;;;7336615;19;108647;-70
2023/07/25 03:56:19;;;;;;;;;;;15.90;99.90;;;;;;7334673;19;109128;-69
2023/07/25 03:58:46;;;;;;;;;;;15.90;99.90;;;;;;7344575;19;109050;-69
2023/07/25 04:01:13;;;;;;;;;;;15.80;99.90;;;;;;7334525;19;109049;-69
2023/07/25 04:03:41;;;;;;;;;;;15.90;99.90;;;;;;7335986;19;110716;-69
2023/07/25 04:06:08;;;;;;;;;;;15.90;99.90;;;;;;7334681;19;108665;-70
2023/07/25 04:08:36;;;;;;;;;;;16.00;99.90;;;;;;7339189;19;111168;-69
2023/07/25 04:11:03;;;;;;;;;;;16.10;99.90;;;;;;7334974;19;109398;-69
2023/07/25 04:13:30;;;;;;;;;;;16.10;99.90;;;;;;7336465;19;109021;-69
2023/07/25 04:15:57;;;;;;;;;;;16.10;99.90;;;;;;7330619;19;109578;-69
2023/07/25 04:18:24;;;;;;;;;;;16.00;99.90;;;;;;7341677;19;108818;-69
2023/07/25 04:20:51;;;;;;;;;;;16.00;99.90;;;;;;7334093;19;109498;-69
2023/07/25 04:23:20;;;;;;;;;;;16.00;99.90;;;;;;7335149;19;108354;-69
2023/07/25 04:25:48;;;;;;;;;;;16.10;99.90;;;;;;7333333;19;113309;-69
2023/07/25 04:28:15;;;;;;;;;;;16.10;99.90;;;;;;7334239;19;110270;-69
2023/07/25 04:30:43;;;;;;;;;;;16.10;99.90;;;;;;7332751;19;108994;-69
2023/07/25 04:33:10;;;;;;;;;;;16.10;99.90;;;;;;7334217;19;110219;-69
2023/07/25 04:35:37;;;;;;;;;;;16.00;99.90;;;;;;7332715;19;109266;-68
2023/07/25 04:38:04;;;;;;;;;;;16.00;99.90;;;;;;7336409;19;109549;-69
2023/07/25 04:40:31;;;;;;;;;;;16.10;99.90;;;;;;7339393;19;109801;-68
2023/07/25 04:42:58;;;;;;;;;;;16.10;99.90;;;;;;7337254;19;110737;-68
2023/07/25 04:45:25;;;;;;;;;;;16.20;99.90;;;;;;7334228;19;108841;-69
2023/07/25 04:47:52;;;;;;;;;;;16.20;99.90;;;;;;7334338;19;109094;-69
2023/07/25 04:50:19;;;;;;;;;;;16.30;99.90;;;;;;7328984;19;110707;-69
2023/07/25 04:52:46;;;;;;;;;;;16.30;99.90;;;;;;7335909;19;110590;-69
2023/07/25 04:55:13;;;;;;;;;;;16.30;99.90;;;;;;7335055;19;109552;-70
2023/07/25 04:57:41;;;;;;;;;;;16.30;99.90;;;;;;7334735;19;109942;-69
2023/07/25 05:00:08;;;;;;;;;;;16.30;99.90;;;;;;7333848;19;109101;-70
2023/07/25 05:02:35;;;;;;;;;;;16.30;99.90;;;;;;7340549;19;109136;-70
2023/07/25 05:05:03;;;;;;;;;;;16.40;99.90;;;;;;7336007;19;108963;-72
2023/07/25 05:07:30;;;;;;;;;;;16.30;99.90;;;;;;7333213;19;109093;-70
2023/07/25 05:09:57;;;;;;;;;;;16.40;99.90;;;;;;7334589;19;109970;-70
2023/07/25 05:12:24;;;;;;;;;;;16.30;99.90;;;;;;7336239;19;109869;-69
2023/07/25 05:14:51;;;;;;;;;;;16.40;99.90;;;;;;7336419;19;110207;-69
2023/07/25 05:17:19;;;;;;;;;;;16.40;99.90;;;;;;7312571;19;111667;-69
2023/07/25 05:19:45;;;;;;;;;;;16.40;99.90;;;;;;7333584;19;109636;-69
2023/07/25 05:22:16;;;;;;;;;;;16.40;99.90;;;;;;7330908;19;109309;-69
2023/07/25 05:24:43;;;;;;;;;;;16.40;99.90;;;;;;7337145;19;109745;-69
2023/07/25 05:27:10;;;;;;;;;;;16.40;99.90;;;;;;7333464;19;111298;-70
2023/07/25 05:29:37;;;;;;;;;;;16.40;99.90;;;;;;7334903;19;112203;-69
2023/07/25 05:32:05;;;;;;;;;;;16.50;99.90;;;;;;7326704;19;108535;-70
2023/07/25 05:34:32;;;;;;;;;;;16.50;99.90;;;;;;7332940;19;109903;-69
2023/07/25 05:37:00;;;;;;;;;;;16.50;99.90;;;;;;7333978;19;108438;-69
2023/07/25 05:39:27;;;;;;;;;;;16.50;99.90;;;;;;7322629;19;110150;-69
2023/07/25 05:41:54;;;;;;;;;;;16.50;99.90;;;;;;7331599;19;110164;-69
2023/07/25 05:44:21;;;;;;;;;;;16.50;99.90;;;;;;7334169;19;109036;-69
2023/07/25 05:46:48;;;;;;;;;;;16.60;99.90;;;;;;7337896;19;108712;-70
2023/07/25 05:49:15;;;;;;;;;;;16.50;99.90;;;;;;7333242;19;108693;-74
2023/07/25 05:51:42;;;;;;;;;;;16.50;99.90;;;;;;7335338;19;109809;-74
2023/07/25 05:54:09;;;;;;;;;;;16.50;99.90;;;;;;7333188;19;109970;-75
2023/07/25 05:56:37;;;;;;;;;;;16.60;99.90;;;;;;7334348;19;108761;-74
2023/07/25 05:59:04;;;;;;;;;;;16.60;99.90;;;;;;7333988;19;111116;-74
2023/07/25 06:01:31;;;;;;;;;;;16.70;99.90;;;;;;7328781;19;110074;-75
2023/07/25 06:03:59;;;;;;;;;;;16.70;99.90;;;;;;7336329;19;109045;-74
2023/07/25 06:06:26;;;;;;;;;;;16.70;99.90;;;;;;7338485;19;109523;-74
2023/07/25 06:08:53;;;;;;;;;;;16.70;99.90;;;;;;7334208;19;108593;-74
2023/07/25 06:11:22;;;;;;;;;;;16.70;99.90;;;;;;7333841;19;110176;-74
2023/07/25 06:13:52;;;;;;;;;;;16.70;99.90;;;;;;7334232;19;110029;-74
2023/07/25 06:16:19;;;;;;;;;;;16.70;99.90;;;;;;7333265;19;109054;-75
2023/07/25 06:18:47;;;;;;;;;;;16.80;99.90;;;;;;7338154;19;108151;-73
2023/07/25 06:21:14;;;;;;;;;;;16.80;99.90;;;;;;7329943;19;109527;-74
2023/07/25 06:23:41;;;;;;;;;;;16.90;99.90;;;;;;7335595;19;109992;-73
2023/07/25 06:26:08;;;;;;;;;;;17.00;99.90;;;;;;7333754;19;109002;-73
2023/07/25 06:28:35;;;;;;;;;;;17.00;99.90;;;;;;7339525;19;110253;-74
2023/07/25 06:31:03;;;;;;;;;;;17.10;99.90;;;;;;7331627;19;109162;-74
2023/07/25 06:33:30;;;;;;;;;;;17.10;99.90;;;;;;7333505;19;109074;-74
2023/07/25 06:35:57;;;;;;;;;;;17.20;99.90;;;;;;7339450;19;108825;-74
2023/07/25 06:38:24;;;;;;;;;;;17.20;99.90;;;;;;7340332;19;109027;-74
2023/07/25 06:40:51;;;;;;;;;;;17.30;99.90;;;;;;7340333;19;109763;-74
2023/07/25 06:43:18;;;;;;;;;;;17.40;99.90;;;;;;7338761;19;108556;-74
2023/07/25 06:45:45;;;;;;;;;;;17.50;99.90;;;;;;7341530;19;109180;-74
2023/07/25 06:48:12;;;;;;;;;;;17.60;99.90;;;;;;7339483;19;112764;-75
2023/07/25 06:50:39;;;;;;;;;;;17.70;99.90;;;;;;7346453;19;108940;-75
2023/07/25 06:53:06;;;;;;;;;;;17.80;99.90;;;;;;7343110;19;109997;-75
2023/07/25 06:55:34;;;;;;;;;;;17.80;99.90;;;;;;7339351;19;109250;-74
2023/07/25 06:58:02;;;;;;;;;;;17.80;99.90;;;;;;7340369;19;108618;-75
2023/07/25 07:00:29;;;;;;;;;;;17.80;99.90;;;;;;7341098;19;109638;-75
2023/07/25 07:02:56;;;;;;;;;;;17.80;99.90;;;;;;7340118;19;108455;-74
2023/07/25 07:08:10;;;;;;;;;;;17.80;99.90;;;;;;7333851;19;110317;-85
2023/07/25 07:10:37;;;;;;;;;;;17.80;99.90;;;;;;7371852;19;112720;-86
2023/07/25 07:13:05;;;;;;;;;;;17.70;99.90;;;;;;7378829;19;111434;-84
2023/07/25 07:15:33;;;;;;;;;;;17.70;99.90;;;;;;7369941;19;108077;-85
2023/07/25 07:18:00;;;;;;;;;;;17.70;99.90;;;;;;7352415;19;108300;-85
2023/07/25 07:20:27;;;;;;;;;;;17.70;99.90;;;;;;7343179;19;110414;-86
2023/07/25 07:22:54;;;;;;;;;;;17.80;99.90;;;;;;7346629;19;108546;-83
2023/07/25 07:25:21;;;;;;;;;;;17.80;99.90;;;;;;7340787;19;112678;-86
2023/07/25 07:27:48;;;;;;;;;;;17.80;99.90;;;;;;7345495;19;110424;-86
2023/07/25 07:30:15;;;;;;;;;;;17.90;99.90;;;;;;7342682;19;109335;-85
2023/07/25 07:32:42;;;;;;;;;;;17.90;99.90;;;;;;7341463;19;111830;-85
2023/07/25 07:35:10;;;;;;;;;;;18.00;99.90;;;;;;7347349;19;110283;-85
2023/07/25 07:37:37;;;;;;;;;;;18.00;99.90;;;;;;7338969;19;108816;-86
2023/07/25 07:40:05;;;;;;;;;;;18.10;99.90;;;;;;7341945;19;110074;-85
2023/07/25 07:42:32;;;;;;;;;;;18.00;99.90;;;;;;7342017;19;108690;-85
2023/07/25 07:44:59;;;;;;;;;;;18.00;99.90;;;;;;7343480;19;109359;-84
2023/07/25 07:47:26;;;;;;;;;;;18.00;99.90;;;;;;7344239;19;110568;-84
2023/07/25 07:49:54;;;;;;;;;;;18.00;99.90;;;;;;7345412;19;108731;-85
2023/07/25 07:52:21;;;;;;;;;;;18.10;99.90;;;;;;7344161;19;109016;-84
2023/07/25 07:55:02;;;;;;;;;;;18.10;99.90;;;;;;7338193;19;110251;-84
2023/07/25 07:57:30;;;;;;;;;;;18.00;99.90;;;;;;7345430;19;109468;-84
2023/07/25 07:59:57;;;;;;;;;;;18.00;99.90;;;;;;7338710;19;113215;-84
2023/07/25 08:02:24;;;;;;;;;;;17.80;99.90;;;;;;7339273;19;108696;-84
2023/07/25 08:04:51;;;;;;;;;;;17.70;99.90;;;;;;7336044;19;109131;-84
2023/07/25 08:07:18;;;;;;;;;;;17.70;99.90;;;;;;7337257;19;110496;-85
2023/07/25 08:09:45;;;;;;;;;;;17.70;99.90;;;;;;7344795;19;109252;-84
2023/07/25 08:12:13;;;;;;;;;;;17.60;99.90;;;;;;7339533;19;108392;-75
2023/07/25 08:14:40;;;;;;;;;;;17.70;99.90;;;;;;7335487;19;109228;-75
2023/07/25 08:17:07;;;;;;;;;;;17.80;99.90;;;;;;7339895;19;108913;-74
2023/07/25 08:19:34;;;;;;;;;;;17.90;99.90;;;;;;7335839;19;109184;-75
2023/07/25 08:22:01;;;;;;;;;;;17.90;99.90;;;;;;7337712;19;109314;-75
2023/07/25 08:24:28;;;;;;;;;;;17.90;99.90;;;;;;7333523;19;108843;-75
2023/07/25 08:26:55;;;;;;;;;;;17.90;99.90;;;;;;7336299;19;110887;-73
2023/07/25 08:29:22;;;;;;;;;;;18.00;99.90;;;;;;7332200;19;110010;-74
2023/07/25 08:31:50;;;;;;;;;;;18.00;99.90;;;;;;7333979;19;109467;-74
2023/07/25 08:34:17;;;;;;;;;;;17.90;99.90;;;;;;7336771;19;110158;-74
2023/07/25 08:36:44;;;;;;;;;;;18.00;99.90;;;;;;7335809;19;108530;-75
2023/07/25 08:39:12;;;;;;;;;;;17.90;99.90;;;;;;7341040;19;108656;-74
2023/07/25 08:41:46;;;;;;;;;;;18.00;99.90;;;;;;7335019;19;109999;-74
2023/07/25 08:44:15;;;;;;;;;;;18.10;99.90;;;;;;7339530;19;108970;-75
2023/07/25 08:46:44;;;;;;;;;;;18.20;99.90;;;;;;7334072;19;109133;-74
2023/07/25 08:49:15;;;;;;;;;;;18.30;99.90;;;;;;7335655;19;108332;-73
2023/07/25 08:51:47;;;;;;;;;;;18.30;99.90;;;;;;7337947;19;108970;-74
2023/07/25 08:54:36;;;;;;;;;;;18.30;99.90;;;;;;7334246;19;110732;-74
2023/07/25 08:57:04;;;;;;;;;;;18.30;99.90;;;;;;7333809;19;109708;-74
2023/07/25 08:59:31;;;;;;;;;;;18.30;99.90;;;;;;7335805;19;110787;-74
2023/07/25 09:01:59;;;;;;;;;;;18.30;99.90;;;;;;7339503;19;111486;-73
2023/07/25 09:04:27;;;;;;;;;;;18.30;99.90;;;;;;7335403;19;109263;-73
2023/07/25 09:06:54;;;;;;;;;;;18.40;99.90;;;;;;7333807;19;109487;-74
2023/07/25 09:09:22;;;;;;;;;;;18.40;99.90;;;;;;7335854;19;109262;-75
2023/07/25 09:11:50;;;;;;;;;;;18.50;99.90;;;;;;7335922;19;109059;-75
2023/07/25 09:14:17;;;;;;;;;;;18.70;99.90;;;;;;7334114;19;108962;-75
2023/07/25 09:16:44;;;;;;;;;;;18.80;99.90;;;;;;7331564;19;109277;-74
2023/07/25 09:19:12;;;;;;;;;;;18.70;99.90;;;;;;7336040;19;109356;-74
2023/07/25 09:21:49;;;;;;;;;;;18.70;99.90;;;;;;7333019;19;109596;-74
2023/07/25 09:24:16;;;;;;;;;;;18.90;99.90;;;;;;7341686;19;108755;-75
2023/07/25 09:26:48;;;;;;;;;;;19.00;99.90;;;;;;7332950;19;110110;-75
2023/07/25 09:29:16;;;;;;;;;;;19.10;99.90;;;;;;7335214;19;108866;-75
2023/07/25 09:31:45;;;;;;;;;;;19.20;99.90;;;;;;7333503;19;109098;-76
2023/07/25 09:34:17;;;;;;;;;;;19.30;99.90;;;;;;7332012;19;109279;-74
2023/07/25 09:36:45;;;;;;;;;;;19.40;99.90;;;;;;7332846;19;108580;-75
2023/07/25 09:39:13;;;;;;;;;;;19.50;99.90;;;;;;7338528;19;108759;-75
2023/07/25 09:41:41;;;;;;;;;;;19.50;99.90;;;;;;7334071;19;109218;-75
2023/07/25 09:44:09;;;;;;;;;;;19.70;99.90;;;;;;7331985;19;109007;-75
2023/07/25 09:46:36;;;;;;;;;;;19.80;99.90;;;;;;7338303;19;109364;-74
2023/07/25 09:49:03;;;;;;;;;;;19.80;99.90;;;;;;7334922;19;109263;-75
2023/07/25 09:51:30;;;;;;;;;;;19.90;99.90;;;;;;7334904;19;108785;-76
2023/07/25 09:54:05;;;;;;;;;;;20.10;99.90;;;;;;7332224;19;110139;-75
2023/07/25 09:56:32;;;;;;;;;;;20.20;99.90;;;;;;7334139;19;108544;-74
2023/07/25 09:59:03;;;;;;;;;;;20.40;99.90;;;;;;7332954;19;112007;-75
2023/07/25 10:01:35;;;;;;;;;;;20.40;99.90;;;;;;7330648;19;111263;-75
2023/07/25 10:04:03;;;;;;;;;;;20.60;99.90;;;;;;7331464;19;108667;-74
2023/07/25 10:06:31;;;;;;;;;;;20.80;99.90;;;;;;7330342;19;109318;-74
2023/07/25 10:08:58;;;;;;;;;;;21.00;99.90;;;;;;7341074;19;109246;-74
2023/07/25 10:11:26;;;;;;;;;;;21.00;99.90;;;;;;7340261;19;109731;-73
2023/07/25 10:13:53;;;;;;;;;;;21.10;99.90;;;;;;7341178;19;109476;-74
2023/07/25 10:16:21;;;;;;;;;;;20.90;99.90;;;;;;7337741;19;109278;-74
2023/07/25 10:18:55;;;;;;;;;;;20.90;99.90;;;;;;7336895;19;108347;-75
2023/07/25 10:21:26;;;;;;;;;;;20.90;99.90;;;;;;7337501;19;110376;-73
2023/07/25 10:23:59;;;;;;;;;;;21.00;99.90;;;;;;7337107;19;108978;-77
2023/07/25 10:26:27;;;;;;;;;;;20.80;99.90;;;;;;7333209;19;108787;-77
2023/07/25 10:28:57;;;;;;;;;;;20.80;99.90;;;;;;7337156;19;109574;-72
2023/07/25 10:31:30;;;;;;;;;;;20.90;99.90;;;;;;7329715;19;109630;-72
2023/07/25 10:33:58;;;;;;;;;;;21.00;99.90;;;;;;7332019;19;111586;-73
2023/07/25 10:36:26;;;;;;;;;;;21.10;99.90;;;;;;7331321;19;108841;-70
2023/07/25 10:39:09;;;;;;;;;;;21.20;99.90;;;;;;7332056;19;109326;-72
2023/07/25 10:41:36;;;;;;;;;;;21.20;99.90;;;;;;7335591;19;112971;-72
2023/07/25 10:44:04;;;;;;;;;;;21.20;99.90;;;;;;7337724;19;109504;-72
2023/07/25 10:46:32;;;;;;;;;;;21.10;99.90;;;;;;7332792;19;109746;-72
2023/07/25 10:49:00;;;;;;;;;;;21.00;99.90;;;;;;7331779;19;110096;-72
2023/07/25 10:52:05;;;;;;;;;;;20.90;99.90;;;;;;7340539;19;109764;-73
2023/07/25 10:54:32;;;;;;;;;;;20.90;99.90;;;;;;7337159;19;110078;-72
2023/07/25 10:57:17;;;;;;;;;;;20.70;99.90;;;;;;7334831;19;111493;-73
2023/07/25 11:00:10;;;;;;;;;;;20.70;99.90;;;;;;7338299;19;109130;-72
2023/07/25 11:02:42;;;;;;;;;;;20.60;99.90;;;;;;7338029;19;109174;-72
2023/07/25 11:05:12;;;;;;;;;;;20.70;99.90;;;;;;7335898;19;111201;-71
2023/07/25 11:07:39;;;;;;;;;;;20.70;99.90;;;;;;7336894;19;108754;-72
2023/07/25 11:10:07;;;;;;;;;;;20.80;99.90;;;;;;7336774;19;109977;-72
2023/07/25 11:12:35;;;;;;;;;;;20.90;99.90;;;;;;7332863;19;110161;-72
2023/07/25 11:15:03;;;;;;;;;;;21.10;99.90;;;;;;7344293;19;108534;-73
2023/07/25 11:17:30;;;;;;;;;;;21.10;99.90;;;;;;7334531;19;108876;-72
2023/07/25 11:20:16;;;;;;;;;;;21.20;99.90;;;;;;7334415;19;109336;-72
2023/07/25 11:22:43;;;;;;;;;;;21.20;99.90;;;;;;7337116;19;109117;-72
2023/07/25 11:25:10;;;;;;;;;;;21.20;99.90;;;;;;7333219;19;110255;-73
2023/07/25 11:27:41;;;;;;;;;;;21.30;99.90;;;;;;7336996;19;110441;-71
2023/07/25 11:30:12;;;;;;;;;;;21.30;99.90;;;;;;7334387;19;110109;-71
2023/07/25 11:32:45;;;;;;;;;;;21.40;99.90;;;;;;7336571;19;108448;-72
2023/07/25 11:35:12;;;;;;;;;;;21.60;99.90;;;;;;7334253;19;108643;-72
2023/07/25 11:37:40;;;;;;;;;;;21.60;99.90;;;;;;7339124;19;109272;-72
2023/07/25 11:40:20;;;;;;;;;;;21.70;99.90;;;;;;7334814;19;108666;-72
2023/07/25 11:42:48;;;;;;;;;;;21.80;99.90;;;;;;7331523;19;113455;-72
2023/07/25 11:45:16;;;;;;;;;;;22.00;99.90;;;;;;7335766;19;109519;-72
2023/07/25 11:47:46;;;;;;;;;;;22.10;99.90;;;;;;7333894;19;110310;-72
2023/07/25 11:50:14;;;;;;;;;;;22.00;99.90;;;;;;7334167;19;109822;-72
2023/07/25 11:52:53;;;;;;;;;;;22.00;99.90;;;;;;7334560;19;109098;-72
2023/07/25 11:55:20;;;;;;;;;;;21.90;99.90;;;;;;7335863;19;108373;-72
2023/07/25 11:57:47;;;;;;;;;;;21.80;99.90;;;;;;7332242;19;110176;-72
2023/07/25 12:00:16;;;;;;;;;;;21.80;99.90;;;;;;7341470;19;109211;-72
2023/07/25 12:02:43;;;;;;;;;;;21.70;99.90;;;;;;7330669;19;109197;-71
2023/07/25 12:05:24;;;;;;;;;;;21.60;99.90;;;;;;7334400;19;108775;-72
2023/07/25 12:07:52;;;;;;;;;;;21.80;99.90;;;;;;7332542;19;110104;-71
2023/07/25 12:10:26;;;;;;;;;;;22.20;99.90;;;;;;7334687;19;109833;-72
2023/07/25 12:12:57;;;;;;;;;;;22.20;99.90;;;;;;7334955;19;108414;-72
2023/07/25 12:15:42;;;;;;;;;;;22.00;99.90;;;;;;7332604;19;109949;-72
2023/07/25 12:18:24;;;;;;;;;;;21.90;99.90;;;;;;7331862;19;110130;-72
2023/07/25 12:20:51;;;;;;;;;;;21.80;99.90;;;;;;7334636;19;109865;-71
2023/07/25 12:23:28;;;;;;;;;;;21.70;99.90;;;;;;7340857;19;109452;-72
2023/07/25 12:25:56;;;;;;;;;;;21.50;99.90;;;;;;7335825;19;109547;-71
2023/07/25 12:28:24;;;;;;;;;;;21.50;99.90;;;;;;7330265;19;109086;-71
2023/07/25 12:30:51;;;;;;;;;;;21.70;99.90;;;;;;7333749;19;109103;-72
2023/07/25 12:33:18;;;;;;;;;;;21.90;99.90;;;;;;7328703;19;109900;-72
2023/07/25 12:35:45;;;;;;;;;;;22.10;99.90;;;;;;7331530;19;109761;-71
2023/07/25 12:38:12;;;;;;;;;;;22.20;99.90;;;;;;7331351;19;112267;-72
2023/07/25 12:40:39;;;;;;;;;;;22.10;99.90;;;;;;7334698;19;108432;-71
2023/07/25 12:43:06;;;;;;;;;;;21.90;99.90;;;;;;7335450;19;108800;-71
2023/07/25 12:45:34;;;;;;;;;;;21.70;99.90;;;;;;7335572;19;111078;-71
2023/07/25 12:48:01;;;;;;;;;;;21.60;99.90;;;;;;7333493;19;108833;-72
2023/07/25 12:50:29;;;;;;;;;;;21.60;99.90;;;;;;7330555;19;109055;-72
2023/07/25 12:52:56;;;;;;;;;;;21.50;99.90;;;;;;7331345;19;111379;-72
2023/07/25 12:55:23;;;;;;;;;;;21.50;99.90;;;;;;7330120;19;111037;-72
2023/07/25 12:57:50;;;;;;;;;;;21.50;99.90;;;;;;7334007;19;109134;-72
2023/07/25 13:00:17;;;;;;;;;;;21.40;99.90;;;;;;7329092;19;109880;-72
2023/07/25 13:02:44;;;;;;;;;;;21.40;99.90;;;;;;7331650;19;108378;-71
2023/07/25 13:05:12;;;;;;;;;;;21.40;99.90;;;;;;7335805;19;109069;-72
2023/07/25 13:07:39;;;;;;;;;;;21.60;99.90;;;;;;7332468;19;109420;-72
2023/07/25 13:10:07;;;;;;;;;;;21.60;99.90;;;;;;7333383;19;109453;-71
2023/07/25 13:12:34;;;;;;;;;;;21.70;99.90;;;;;;7331938;19;108373;-71
2023/07/25 13:15:01;;;;;;;;;;;21.80;99.90;;;;;;7335003;19;108842;-72
2023/07/25 13:17:28;;;;;;;;;;;22.10;99.90;;;;;;7331818;19;111730;-72
2023/07/25 13:19:55;;;;;;;;;;;22.20;99.90;;;;;;7329854;19;108805;-73
2023/07/25 13:22:23;;;;;;;;;;;22.50;99.90;;;;;;7327143;19;113263;-72
2023/07/25 13:24:55;;;;;;;;;;;22.60;99.90;;;;;;7329743;19;110290;-71
2023/07/25 13:27:26;;;;;;;;;;;22.60;99.90;;;;;;7337201;19;111642;-72
2023/07/25 13:29:53;;;;;;;;;;;22.40;99.90;;;;;;7327808;19;109411;-72
2023/07/25 13:32:21;;;;;;;;;;;22.30;99.90;;;;;;7329938;19;109287;-72
2023/07/25 13:34:48;;;;;;;;;;;22.40;99.90;;;;;;7331427;19;109184;-72
2023/07/25 13:37:15;;;;;;;;;;;22.40;99.90;;;;;;7328367;19;109983;-72
2023/07/25 13:39:43;;;;;;;;;;;22.50;99.90;;;;;;7334770;19;108938;-71
2023/07/25 13:42:10;;;;;;;;;;;22.50;99.70;;;;;;7333118;19;109548;-72
2023/07/25 13:44:37;;;;;;;;;;;22.50;99.90;;;;;;7331659;19;109122;-72
2023/07/25 13:47:04;;;;;;;;;;;22.50;99.90;;;;;;7332281;19;108440;-72
2023/07/25 13:49:31;;;;;;;;;;;22.50;99.10;;;;;;7338001;19;109124;-72
2023/07/25 13:51:58;;;;;;;;;;;22.30;99.20;;;;;;7328544;19;109704;-71
2023/07/25 13:54:30;;;;;;;;;;;22.30;99.40;;;;;;7332549;19;108927;-72
2023/07/25 13:56:57;;;;;;;;;;;22.30;99.80;;;;;;7330345;19;109839;-72
2023/07/25 13:59:24;;;;;;;;;;;22.20;99.00;;;;;;7334385;19;108615;-72
2023/07/25 14:01:51;;;;;;;;;;;22.10;99.70;;;;;;7331011;19;108542;-71
2023/07/25 14:04:19;;;;;;;;;;;22.20;99.50;;;;;;7333155;19;110326;-73
2023/07/25 14:06:50;;;;;;;;;;;22.40;99.90;;;;;;7334588;19;110231;-70
2023/07/25 14:09:19;;;;;;;;;;;22.80;98.10;;;;;;7332835;19;108789;-71
2023/07/25 14:11:46;;;;;;;;;;;23.00;98.90;;;;;;7336183;19;112514;-72
2023/07/25 14:14:13;;;;;;;;;;;23.10;99.10;;;;;;7332330;19;109033;-72